Linfield, Pennsylvania
Current Conditions -  °F | °C
As of 5:54 PM on Wednesday 26 Nov 2014 (Local Time) from KPTW Reporting Station
Light Snow Light Snow  
Wind Chill: 25°   Ceiling: 2000
Heat Index: 33°   Visibility: 5mi
Dew Point: 32°   Wind: 10mph
Humidity: 96%   Direction: 310°NW
Pressure: 29.9"   Gusts: NA
Location:  40.2034°N, 75.5319°W
Report Text: KPTW 262254Z AUTO 31009KT 5SM -SN BR FEW013 OVC020 01/00 A2990 RMK AO2 SLP125 P0004 T00060000
Loading
Personal Weather Stations






























Interactive Weather Map New forecast layout! Learn more

10-Day Weather Forecast

Advertisements
Track Severe Weather on mobile